• Join FlightAware (Why Join?)
  • Login
  • US Flag 
07:33AM EDT


 

Airport Tracker/Info


-or-


 

Live Flight TrackerFlight Track Log ✈ CSN6664 ✈ 05-May-2013 ✈ ZBHH / HET - ZYTX / SHE

Flight Track Log - Related Links

Times and Time Zones

All times are in EDT time to prevent confusion due to time zone crossing. See the CSN6664 flight status page for this flight to view local times or setup timezone preferences in your user account.

Time Position Orientation Groundspeed Altitude Reporting Facility
EDT Latitude Longitude Course Direction KTS MPH feet Rate Location/Type
02:58AM 41.4799 119.0317 81° East  Level Estimated
02:59AM 41.4896 119.2091 86° East  Level Estimated
03:00AM 41.4990 119.3864 86° East  Level Estimated
03:01AM 41.5081 119.5639 86° East  Level Estimated
03:02AM 41.5170 119.7413 86° East  Level Estimated
03:03AM 41.5256 119.9188 86° East  Level Estimated
03:04AM 41.5339 120.0964 86° East  Level Estimated
03:05AM 41.5419 120.2740 86° East  Level Estimated
03:06AM 41.5497 120.4517 87° East  Level Estimated
03:07AM 41.5572 120.6293 87° East  Level Estimated
03:08AM 41.5644 120.8071 87° East  Level Estimated
03:09AM 41.5713 120.9848 87° East  Level Estimated
03:10AM 41.5780 121.1627 87° East  Level Estimated
03:11AM 41.5844 121.3405 87° East  Level Estimated
03:12AM 41.5905 121.5184 87° East  Level Estimated
03:13AM 41.5964 121.6963 87° East  Level Estimated
03:14AM 41.6019 121.8743 88° East  Level Estimated
03:15AM 41.6072 122.0522 88° East  Level Estimated
03:16AM 41.6123 122.2302 88° East  Level Estimated
03:17AM 41.6170 122.4083 88° East  Level Estimated
03:18AM 41.6215 122.5863 88° East  Level Estimated
03:19AM 41.6257 122.7644 88° East  Level Estimated
03:20AM 41.6296 122.9425 88° East  Level Estimated
03:21AM 41.6333 123.1206 88° East  Level Estimated
03:22AM 41.6366 123.2988 88° East  Level Estimated
03:23AM 41.6397 123.4769 89° East  Level Estimated
03:24AM 41.6398 123.4834 89° East  Level Estimated
03:25AM 41.6398 123.4834 298° West  Level Estimated
03:26AM 41.6398 123.4834 298° West  Level Estimated
03:27AM 41.6398 123.4834 298° West  Level Estimated
03:28AM 41.6398 123.4834 298° West  Level Estimated
03:29AM 41.6398 123.4834 298° West  Level Estimated
03:30AM 41.6398 123.4834 298° West  Level Estimated
03:31AM 41.6398 123.4834 298° West  Level Estimated
03:32AM 41.6398 123.4834 298° West  Level Estimated
03:33AM 41.6398 123.4834 298° West  Level Estimated
03:34AM 41.6398 123.4834 298° West  Level Estimated
03:35AM 41.6398 123.4834 298° West  Level Estimated
03:36AM 41.6398 123.4834 298° West  Level Estimated
03:37AM 41.6398 123.4834 298° West  Level Estimated
03:38AM 41.6398 123.4834 298° West  Level Estimated
03:39AM 41.6398 123.4834 298° West  Level Estimated
03:40AM 41.6398 123.4834 298° West  Level Estimated
03:41AM 41.6398 123.4834 298° West  Level Estimated
03:42AM 41.6398 123.4834 298° West  Level Estimated